Time;durP1;ratioP1;P1;durP2;ratioP2;P2;SDS_P1;SDS_P2;PMS_P1;PMS_P2;Temp;Humidity;BMP_temperature;BMP_pressure;BME280_temperature;BME280_humidity;BME280_pressure;Samples;Min_cycle;Max_cycle;Signal;HPM_P1;HPM_P2
2022/05/16 00:02:30;;;;;;;;;4.00;4.00;;;;;;;;5080636;27;45418;-76
2022/05/16 00:04:58;;;;;;;;;3.00;3.00;;;;;;;;5080396;27;46433;-75
2022/05/16 00:07:24;;;;;;;;;5.00;2.00;;;;;;;;5080083;27;45478;-75
2022/05/16 00:09:49;;;;;;;;;5.67;3.00;;;;;;;;5080398;27;45288;-75
2022/05/16 00:12:14;;;;;;;;;74.00;65.00;;;;;;;;5080645;27;45226;-75
2022/05/16 00:14:49;;;;;;;;;10.00;10.00;;;;;;;;5080504;27;46351;-75
2022/05/16 00:17:14;;;;;;;;;4.00;4.00;;;;;;;;5080368;27;45312;-75
2022/05/16 00:19:40;;;;;;;;;4.00;4.00;;;;;;;;5080415;28;45451;-76
2022/05/16 00:22:08;;;;;;;;;6.00;4.67;;;;;;;;5080382;27;45290;-76
2022/05/16 00:24:33;;;;;;;;;5.00;4.00;;;;;;;;5080074;27;45308;-75
2022/05/16 00:26:58;;;;;;;;;5.33;3.00;;;;;;;;5080228;27;45314;-75
2022/05/16 00:29:26;;;;;;;;;3.00;2.00;;;;;;;;5080667;27;45402;-74
2022/05/16 00:31:55;;;;;;;;;4.00;4.00;;;;;;;;5080955;27;45422;-75
2022/05/16 00:34:21;;;;;;;;;3.33;2.33;;;;;;;;5080403;27;47213;-78
2022/05/16 00:36:47;;;;;;;;;3.00;3.00;;;;;;;;5080293;27;45356;-76
2022/05/16 00:39:13;;;;;;;;;4.00;3.00;;;;;;;;5080313;27;45444;-77
2022/05/16 00:41:38;;;;;;;;;6.00;3.00;;;;;;;;5080916;27;45339;-75
2022/05/16 00:44:03;;;;;;;;;3.00;3.00;;;;;;;;5079765;27;45286;-74
2022/05/16 00:46:31;;;;;;;;;2.00;2.00;;;;;;;;5078682;27;45403;-74
2022/05/16 00:48:57;;;;;;;;;2.00;2.00;;;;;;;;5080206;27;45396;-75
2022/05/16 00:51:23;;;;;;;;;3.00;3.00;;;;;;;;5079998;27;45558;-75
2022/05/16 00:53:50;;;;;;;;;5.00;2.00;;;;;;;;5079915;27;45564;-75
2022/05/16 00:56:16;;;;;;;;;2.00;2.00;;;;;;;;5079354;28;45388;-74
2022/05/16 00:58:42;;;;;;;;;2.33;2.33;;;;;;;;5079743;27;45451;-75
2022/05/16 01:04:47;;;;;;;;;3.67;3.00;;;;;;;;5080090;27;45331;-76
2022/05/16 01:06:38;;;;;;;;;4.00;2.00;;;;;;;;5079393;28;45783;-76
2022/05/16 01:09:06;;;;;;;;;3.00;3.00;;;;;;;;5079503;27;45273;-75
2022/05/16 01:11:35;;;;;;;;;4.67;2.67;;;;;;;;5080160;27;45534;-76
2022/05/16 01:14:00;;;;;;;;;2.00;2.00;;;;;;;;5079286;27;46683;-77
2022/05/16 01:16:27;;;;;;;;;2.00;2.00;;;;;;;;5079603;27;45173;-76
2022/05/16 01:18:52;;;;;;;;;4.00;2.67;;;;;;;;5079665;27;45340;-76
2022/05/16 01:21:30;;;;;;;;;4.00;2.67;;;;;;;;5079572;28;45306;-77
2022/05/16 01:24:04;;;;;;;;;4.00;3.33;;;;;;;;5079152;27;46428;-77
2022/05/16 01:26:36;;;;;;;;;2.33;2.33;;;;;;;;5079261;27;45415;-75
2022/05/16 01:29:02;;;;;;;;;1.67;1.67;;;;;;;;5079320;27;45284;-77
2022/05/16 01:31:27;;;;;;;;;3.00;3.00;;;;;;;;5079626;27;45498;-76
2022/05/16 01:33:55;;;;;;;;;1.33;1.33;;;;;;;;5079066;28;45401;-77
2022/05/16 01:36:22;;;;;;;;;3.00;3.00;;;;;;;;5078974;27;45428;-77
2022/05/16 01:38:49;;;;;;;;;3.00;2.33;;;;;;;;5079079;27;45454;-77
2022/05/16 01:41:20;;;;;;;;;2.00;2.00;;;;;;;;5079555;27;45327;-77
2022/05/16 01:43:50;;;;;;;;;3.00;3.00;;;;;;;;5078901;27;45301;-76
2022/05/16 01:46:20;;;;;;;;;2.00;2.00;;;;;;;;5078826;27;45216;-75
2022/05/16 01:48:48;;;;;;;;;3.00;2.00;;;;;;;;5079289;27;45390;-76
2022/05/16 01:51:13;;;;;;;;;2.00;2.00;;;;;;;;5079145;28;45247;-76
2022/05/16 01:53:39;;;;;;;;;2.00;2.00;;;;;;;;5094338;27;47939;-77
2022/05/16 01:56:05;;;;;;;;;2.67;2.00;;;;;;;;5078680;28;45304;-76
2022/05/16 01:58:30;;;;;;;;;2.00;2.00;;;;;;;;5078285;27;45312;-76
2022/05/16 02:00:55;;;;;;;;;2.33;2.00;;;;;;;;5079236;27;45233;-77
2022/05/16 02:03:21;;;;;;;;;3.33;2.00;;;;;;;;5078415;27;46336;-75
2022/05/16 02:05:49;;;;;;;;;3.33;2.00;;;;;;;;5078598;28;45388;-75
2022/05/16 02:08:15;;;;;;;;;6.33;4.00;;;;;;;;5078603;28;45459;-75
2022/05/16 02:10:41;;;;;;;;;3.00;3.00;;;;;;;;5078734;27;45484;-75
2022/05/16 02:13:10;;;;;;;;;3.67;3.00;;;;;;;;5078638;28;47013;-76
2022/05/16 02:15:35;;;;;;;;;2.67;2.67;;;;;;;;5078344;27;45434;-76
2022/05/16 02:18:04;;;;;;;;;3.00;3.00;;;;;;;;5078670;27;45252;-75
2022/05/16 02:20:32;;;;;;;;;4.00;3.00;;;;;;;;5079629;27;45356;-75
2022/05/16 02:25:48;;;;;;;;;5.00;5.00;;;;;;;;5078293;28;45668;-77
2022/05/16 02:28:17;;;;;;;;;4.33;2.67;;;;;;;;5078642;27;45329;-76
2022/05/16 02:30:51;;;;;;;;;4.00;4.00;;;;;;;;5078862;27;45264;-76
2022/05/16 02:33:17;;;;;;;;;5.33;4.00;;;;;;;;5078332;27;45336;-75
2022/05/16 02:35:42;;;;;;;;;2.00;2.00;;;;;;;;5078377;27;45728;-75
2022/05/16 02:38:12;;;;;;;;;4.00;3.00;;;;;;;;5078001;27;45297;-77
2022/05/16 02:40:37;;;;;;;;;3.33;3.00;;;;;;;;5078469;27;45213;-75
2022/05/16 02:43:08;;;;;;;;;4.00;3.00;;;;;;;;5078028;27;47349;-75
2022/05/16 02:45:34;;;;;;;;;4.33;2.00;;;;;;;;5078031;27;45280;-75
2022/05/16 02:47:59;;;;;;;;;5.67;3.00;;;;;;;;5078004;27;45222;-75
2022/05/16 02:50:27;;;;;;;;;5.67;2.67;;;;;;;;5078264;27;45676;-76
2022/05/16 02:52:53;;;;;;;;;1.67;1.67;;;;;;;;5077789;27;45342;-75
2022/05/16 02:55:18;;;;;;;;;2.00;2.00;;;;;;;;5078017;27;45399;-75
2022/05/16 02:57:51;;;;;;;;;4.00;3.00;;;;;;;;5077757;27;45437;-75
2022/05/16 03:00:17;;;;;;;;;3.67;2.00;;;;;;;;5078127;27;45149;-76
2022/05/16 03:02:42;;;;;;;;;2.00;2.00;;;;;;;;5077653;27;46358;-76
2022/05/16 03:05:08;;;;;;;;;3.00;2.00;;;;;;;;5078014;27;45377;-75
2022/05/16 03:07:34;;;;;;;;;1.67;1.67;;;;;;;;5077600;27;45511;-79
2022/05/16 03:10:02;;;;;;;;;4.67;3.00;;;;;;;;5077264;27;45331;-77
2022/05/16 03:12:27;;;;;;;;;4.00;2.00;;;;;;;;5077815;28;45388;-77
2022/05/16 03:14:52;;;;;;;;;3.67;3.67;;;;;;;;5077835;27;45273;-76
2022/05/16 03:17:18;;;;;;;;;3.33;2.00;;;;;;;;5077894;27;45226;-75
2022/05/16 03:19:43;;;;;;;;;2.33;2.33;;;;;;;;5077678;27;45322;-76
2022/05/16 03:22:08;;;;;;;;;2.33;2.33;;;;;;;;5077455;27;45504;-75
2022/05/16 03:24:34;;;;;;;;;3.00;2.33;;;;;;;;5077422;28;45387;-75
2022/05/16 03:27:00;;;;;;;;;4.33;3.00;;;;;;;;5077924;27;45205;-75
2022/05/16 03:29:25;;;;;;;;;5.00;3.00;;;;;;;;5077836;27;45376;-75
2022/05/16 03:31:50;;;;;;;;;3.00;2.00;;;;;;;;5077302;27;46454;-76
2022/05/16 03:34:16;;;;;;;;;2.00;2.00;;;;;;;;5077910;27;45252;-78
2022/05/16 03:36:41;;;;;;;;;2.00;2.00;;;;;;;;5077649;27;45431;-75
2022/05/16 03:41:51;;;;;;;;;18.00;18.00;;;;;;;;5077235;28;45957;-76
2022/05/16 03:44:17;;;;;;;;;5.67;5.00;;;;;;;;5077129;27;45296;-76
2022/05/16 03:46:42;;;;;;;;;3.00;2.00;;;;;;;;5077432;27;45356;-76
2022/05/16 03:49:07;;;;;;;;;5.67;2.00;;;;;;;;5077571;27;45460;-76
2022/05/16 03:51:33;;;;;;;;;4.33;3.33;;;;;;;;5076964;28;45450;-76
2022/05/16 03:53:58;;;;;;;;;1.00;1.00;;;;;;;;5077339;28;45474;-75
2022/05/16 03:56:24;;;;;;;;;4.00;2.00;;;;;;;;5077022;27;45342;-75
2022/05/16 03:58:50;;;;;;;;;4.00;4.00;;;;;;;;5077377;27;45363;-75
2022/05/16 04:01:15;;;;;;;;;4.67;3.00;;;;;;;;5077041;27;46996;-75
2022/05/16 04:03:40;;;;;;;;;4.33;3.33;;;;;;;;5076995;28;45363;-75
2022/05/16 04:06:06;;;;;;;;;1.00;1.00;;;;;;;;5077217;27;45347;-75
2022/05/16 04:08:33;;;;;;;;;2.33;2.33;;;;;;;;5077062;27;45329;-75
2022/05/16 04:10:59;;;;;;;;;2.00;2.00;;;;;;;;5076781;27;45323;-75
2022/05/16 04:13:26;;;;;;;;;3.00;3.00;;;;;;;;5076713;27;45273;-76
2022/05/16 04:15:51;;;;;;;;;2.67;2.00;;;;;;;;5076859;27;45286;-76
2022/05/16 04:18:17;;;;;;;;;5.00;3.00;;;;;;;;5077039;27;45505;-76
2022/05/16 04:20:42;;;;;;;;;5.00;2.00;;;;;;;;5077576;28;45227;-76
2022/05/16 04:23:08;;;;;;;;;4.67;2.00;;;;;;;;5079910;27;45276;-76
2022/05/16 04:25:33;;;;;;;;;3.67;3.67;;;;;;;;5080502;27;45333;-75
2022/05/16 04:27:59;;;;;;;;;5.00;3.00;;;;;;;;5080631;27;45406;-75
2022/05/16 04:30:24;;;;;;;;;2.67;2.67;;;;;;;;5080377;27;46480;-75
2022/05/16 04:32:49;;;;;;;;;4.33;3.00;;;;;;;;5080007;27;45265;-75
2022/05/16 04:35:14;;;;;;;;;4.33;4.33;;;;;;;;5080372;27;45413;-75
2022/05/16 04:37:40;;;;;;;;;6.33;6.00;;;;;;;;5080088;27;45369;-76
2022/05/16 04:40:06;;;;;;;;;6.00;4.33;;;;;;;;5079103;27;47369;-75
2022/05/16 04:42:40;;;;;;;;;4.67;3.33;;;;;;;;5079685;27;46095;-75
2022/05/16 04:45:08;;;;;;;;;6.00;2.33;;;;;;;;5079794;27;45394;-75
2022/05/16 04:47:33;;;;;;;;;3.33;3.33;;;;;;;;5079941;27;45307;-75
2022/05/16 04:49:58;;;;;;;;;7.00;5.33;;;;;;;;5078551;27;46118;-75
2022/05/16 04:52:23;;;;;;;;;5.67;4.00;;;;;;;;5079567;27;45439;-76
2022/05/16 04:54:49;;;;;;;;;6.33;4.33;;;;;;;;5069397;27;45407;-75
2022/05/16 04:57:15;;;;;;;;;7.00;5.67;;;;;;;;5070781;28;45490;-75
2022/05/16 04:59:40;;;;;;;;;9.67;6.00;;;;;;;;5059100;28;47165;-74
2022/05/16 05:02:05;;;;;;;;;8.00;6.00;;;;;;;;5075197;28;45304;-75
2022/05/16 05:04:31;;;;;;;;;7.33;4.00;;;;;;;;5079601;27;45410;-74
2022/05/16 05:06:57;;;;;;;;;4.67;3.00;;;;;;;;5079923;28;45639;-76
2022/05/16 05:09:22;;;;;;;;;5.67;4.00;;;;;;;;5079430;28;47239;-75
2022/05/16 05:14:34;;;;;;;;;5.33;4.00;;;;;;;;5079625;28;45207;-78
2022/05/16 05:17:03;;;;;;;;;4.67;3.67;;;;;;;;5080226;27;45456;-78
2022/05/16 05:19:29;;;;;;;;;4.00;4.00;;;;;;;;5079474;27;46240;-77
2022/05/16 05:21:54;;;;;;;;;4.00;4.00;;;;;;;;5079512;27;45323;-75
2022/05/16 05:24:19;;;;;;;;;3.00;3.00;;;;;;;;5079523;28;45268;-77
2022/05/16 05:26:46;;;;;;;;;5.00;3.00;;;;;;;;5079960;28;45384;-76
2022/05/16 05:29:12;;;;;;;;;5.00;3.00;;;;;;;;5078583;28;46724;-75
2022/05/16 05:31:39;;;;;;;;;2.67;2.67;;;;;;;;5078700;27;45420;-75
2022/05/16 05:34:05;;;;;;;;;6.33;4.33;;;;;;;;5078893;27;45426;-76
2022/05/16 05:36:31;;;;;;;;;2.67;2.67;;;;;;;;5079550;27;45451;-76
2022/05/16 05:38:57;;;;;;;;;9.00;4.33;;;;;;;;5078901;27;47024;-76
2022/05/16 05:41:23;;;;;;;;;2.67;2.67;;;;;;;;5079080;27;45417;-75
2022/05/16 05:43:49;;;;;;;;;5.67;4.33;;;;;;;;5079178;27;45305;-76
2022/05/16 05:46:15;;;;;;;;;4.00;4.00;;;;;;;;5079524;27;45201;-75
2022/05/16 05:48:41;;;;;;;;;4.67;3.67;;;;;;;;5078958;27;47227;-77
2022/05/16 05:51:06;;;;;;;;;6.67;5.00;;;;;;;;5078577;27;45255;-76
2022/05/16 05:53:31;;;;;;;;;6.00;6.00;;;;;;;;5079066;27;45243;-77
2022/05/16 05:55:56;;;;;;;;;3.67;3.67;;;;;;;;5077982;28;45392;-76
2022/05/16 05:58:22;;;;;;;;;3.00;3.00;;;;;;;;5079156;28;45310;-77
2022/05/16 06:00:47;;;;;;;;;5.67;5.67;;;;;;;;5078845;28;45162;-76
2022/05/16 06:03:13;;;;;;;;;10.33;6.00;;;;;;;;5078415;27;45495;-78
2022/05/16 06:05:38;;;;;;;;;5.00;5.00;;;;;;;;5078812;27;45548;-78
2022/05/16 06:08:04;;;;;;;;;7.33;6.00;;;;;;;;5078229;27;46499;-79
2022/05/16 06:10:29;;;;;;;;;4.00;2.33;;;;;;;;5078120;27;45307;-78
2022/05/16 06:12:55;;;;;;;;;6.00;5.33;;;;;;;;5078630;27;45387;-79
2022/05/16 06:15:20;;;;;;;;;11.33;6.00;;;;;;;;5078291;28;45501;-78
2022/05/16 06:17:46;;;;;;;;;9.00;7.33;;;;;;;;5078471;28;46953;-79
2022/05/16 06:20:12;;;;;;;;;6.67;6.00;;;;;;;;5078119;27;45403;-79
2022/05/16 06:22:38;;;;;;;;;6.00;6.00;;;;;;;;5078472;27;45428;-78
2022/05/16 06:27:54;;;;;;;;;10.00;8.00;;;;;;;;5077351;28;45468;-78
2022/05/16 06:30:19;;;;;;;;;8.00;8.00;;;;;;;;5077854;27;45403;-81
2022/05/16 06:32:45;;;;;;;;;10.00;6.00;;;;;;;;5078561;27;45380;-80
2022/05/16 06:35:11;;;;;;;;;10.33;9.00;;;;;;;;5077872;27;45450;-79
2022/05/16 06:37:36;;;;;;;;;11.33;9.67;;;;;;;;5077673;27;46483;-79
2022/05/16 06:40:02;;;;;;;;;9.00;8.67;;;;;;;;5077458;27;45429;-78
2022/05/16 06:42:27;;;;;;;;;12.33;9.67;;;;;;;;5078340;27;45286;-79
2022/05/16 06:44:53;;;;;;;;;9.67;9.67;;;;;;;;5078309;28;45419;-79
2022/05/16 06:47:18;;;;;;;;;8.00;6.33;;;;;;;;5076513;27;45367;-78
2022/05/16 06:49:43;;;;;;;;;13.67;11.67;;;;;;;;5076712;28;45421;-79
2022/05/16 06:52:08;;;;;;;;;8.33;8.33;;;;;;;;5077769;28;45291;-78
2022/05/16 06:54:34;;;;;;;;;15.00;12.67;;;;;;;;5083491;27;45449;-78
2022/05/16 06:56:59;;;;;;;;;14.33;13.67;;;;;;;;5097662;27;47581;-79
2022/05/16 06:59:24;;;;;;;;;10.33;9.00;;;;;;;;5098062;27;45272;-78
2022/05/16 07:01:49;;;;;;;;;14.33;11.33;;;;;;;;5098254;27;45355;-78
2022/05/16 07:04:15;;;;;;;;;10.33;10.33;;;;;;;;5096800;27;45559;-78
2022/05/16 07:06:40;;;;;;;;;12.00;12.00;;;;;;;;5097558;27;46047;-79
2022/05/16 07:09:05;;;;;;;;;12.67;11.67;;;;;;;;5097826;27;45368;-78
2022/05/16 07:11:32;;;;;;;;;15.67;14.67;;;;;;;;5097640;27;45310;-79
2022/05/16 07:13:57;;;;;;;;;16.67;12.67;;;;;;;;5098285;27;45288;-78
2022/05/16 07:16:23;;;;;;;;;15.33;13.33;;;;;;;;5096675;27;46643;-78
2022/05/16 07:18:48;;;;;;;;;15.33;13.67;;;;;;;;5061636;27;45573;-78
2022/05/16 07:21:13;;;;;;;;;10.33;8.67;;;;;;;;5057220;28;45336;-79
2022/05/16 07:23:38;;;;;;;;;19.00;14.33;;;;;;;;5067704;27;45395;-79
2022/05/16 07:28:47;;;;;;;;;15.33;12.33;;;;;;;;5059448;28;45327;-78
2022/05/16 07:31:13;;;;;;;;;13.33;13.33;;;;;;;;5077152;27;45377;-79
2022/05/16 07:33:38;;;;;;;;;12.00;11.33;;;;;;;;5077694;27;45407;-79
2022/05/16 07:36:04;;;;;;;;;10.33;10.33;;;;;;;;5077148;27;45372;-78
2022/05/16 07:38:29;;;;;;;;;14.33;12.33;;;;;;;;5077218;27;45324;-80
2022/05/16 07:40:55;;;;;;;;;23.33;20.00;;;;;;;;5076949;27;45270;-79
2022/05/16 07:43:21;;;;;;;;;13.00;13.00;;;;;;;;5077594;28;45360;-79
2022/05/16 07:45:46;;;;;;;;;14.33;11.00;;;;;;;;5076945;27;47352;-80
2022/05/16 07:48:12;;;;;;;;;14.67;10.00;;;;;;;;5077180;27;45446;-79
2022/05/16 07:50:38;;;;;;;;;10.67;9.67;;;;;;;;5076682;27;45344;-78
2022/05/16 07:53:05;;;;;;;;;13.00;10.00;;;;;;;;5077428;27;45349;-80
2022/05/16 07:55:30;;;;;;;;;9.33;9.33;;;;;;;;5077360;27;46553;-78
2022/05/16 07:57:55;;;;;;;;;10.00;9.67;;;;;;;;5080340;28;45290;-80
2022/05/16 08:00:22;;;;;;;;;10.00;10.00;;;;;;;;5080952;27;45308;-79
2022/05/16 08:02:47;;;;;;;;;13.33;10.33;;;;;;;;5080639;27;45245;-79
2022/05/16 08:05:14;;;;;;;;;11.00;11.00;;;;;;;;5079474;28;46106;-78
2022/05/16 08:10:31;;;;;;;;;9.67;9.67;;;;;;;;4997770;28;45357;-79
2022/05/16 08:13:01;;;;;;;;;13.00;10.67;;;;;;;;4998278;28;45504;-78
2022/05/16 08:15:27;;;;;;;;;9.00;9.00;;;;;;;;4997970;28;46412;-79
2022/05/16 08:17:52;;;;;;;;;11.00;8.00;;;;;;;;4997986;28;45497;-78
2022/05/16 08:20:18;;;;;;;;;16.00;10.00;;;;;;;;4998128;28;46057;-78
2022/05/16 08:22:43;;;;;;;;;7.00;7.00;;;;;;;;4997925;28;45602;-79
2022/05/16 08:25:09;;;;;;;;;11.67;11.00;;;;;;;;4997670;28;46570;-78
2022/05/16 08:27:34;;;;;;;;;9.33;8.00;;;;;;;;4998016;28;45395;-79
2022/05/16 08:29:59;;;;;;;;;7.00;7.00;;;;;;;;4997833;28;45302;-78
2022/05/16 08:32:24;;;;;;;;;10.67;10.33;;;;;;;;4998117;28;45386;-79
2022/05/16 08:34:51;;;;;;;;;7.00;7.00;;;;;;;;4997736;28;45336;-78
2022/05/16 08:40:06;;;;;;;;;10.67;9.00;;;;;;;;4997523;28;45388;-80
2022/05/16 08:42:48;;;;;;;;;7.00;7.00;;;;;;;;4997836;28;45407;-79
2022/05/16 08:45:17;;;;;;;;;9.00;8.67;;;;;;;;4997596;28;45685;-80
2022/05/16 08:47:42;;;;;;;;;10.67;9.33;;;;;;;;5044715;28;45431;-79
2022/05/16 08:50:19;;;;;;;;;9.67;8.33;;;;;;;;5080082;27;45292;-77
2022/05/16 08:52:50;;;;;;;;;8.33;7.00;;;;;;;;5080376;27;45471;-78
2022/05/16 08:55:23;;;;;;;;;6.00;6.00;;;;;;;;5081979;27;46195;-78
2022/05/16 08:57:53;;;;;;;;;9.33;7.00;;;;;;;;5087958;27;45204;-79
2022/05/16 09:00:41;;;;;;;;;7.67;6.67;;;;;;;;5079797;27;45472;-79
2022/05/16 09:03:12;;;;;;;;;9.00;6.00;;;;;;;;5059722;27;45358;-78
2022/05/16 09:05:40;;;;;;;;;10.00;6.67;;;;;;;;5059029;28;46395;-78
2022/05/16 09:08:09;;;;;;;;;7.67;6.00;;;;;;;;5058119;28;45338;-79
2022/05/16 09:10:55;;;;;;;;;7.33;6.00;;;;;;;;5059344;28;45250;-80
2022/05/16 09:13:29;;;;;;;;;4.33;4.33;;;;;;;;5054488;28;45559;-78
2022/05/16 09:16:30;;;;;;;;;7.33;6.00;;;;;;;;5091469;27;47304;-79
2022/05/16 09:18:58;;;;;;;;;9.00;6.00;;;;;;;;5017254;28;45358;-78
2022/05/16 09:21:42;;;;;;;;;5.00;5.00;;;;;;;;5016561;28;45491;-78
2022/05/16 09:24:10;;;;;;;;;6.67;5.33;;;;;;;;5017274;28;45280;-78
2022/05/16 09:26:35;;;;;;;;;6.00;4.00;;;;;;;;5016653;28;47505;-78
2022/05/16 09:29:19;;;;;;;;;10.67;7.00;;;;;;;;5016712;28;45393;-78
2022/05/16 09:31:46;;;;;;;;;5.00;3.33;;;;;;;;5016695;28;45470;-79
2022/05/16 09:34:12;;;;;;;;;4.67;4.33;;;;;;;;5017048;28;45453;-78
2022/05/16 09:36:39;;;;;;;;;2.33;2.33;;;;;;;;5016792;28;45393;-78
2022/05/16 09:39:05;;;;;;;;;22.00;20.33;;;;;;;;4999403;28;45549;-78
2022/05/16 09:41:33;;;;;;;;;6.67;4.67;;;;;;;;5016575;28;45362;-80
2022/05/16 09:44:04;;;;;;;;;5.33;4.00;;;;;;;;5016612;28;45439;-77
2022/05/16 09:46:31;;;;;;;;;4.33;4.33;;;;;;;;5032815;28;45424;-78
2022/05/16 09:49:15;;;;;;;;;7.00;3.33;;;;;;;;5036415;28;45592;-76
2022/05/16 09:51:53;;;;;;;;;4.00;2.00;;;;;;;;5036407;28;45375;-77
2022/05/16 09:54:31;;;;;;;;;5.67;4.00;;;;;;;;5089321;27;45586;-77
2022/05/16 09:57:02;;;;;;;;;6.67;5.00;;;;;;;;5079247;27;45548;-78
2022/05/16 09:59:37;;;;;;;;;7.33;4.00;;;;;;;;5089859;27;45949;-77
2022/05/16 10:02:09;;;;;;;;;3.00;3.00;;;;;;;;5099474;27;45326;-77
2022/05/16 10:04:39;;;;;;;;;4.00;4.00;;;;;;;;5088906;27;45287;-77
2022/05/16 10:07:04;;;;;;;;;4.00;2.33;;;;;;;;5098973;27;46548;-76
2022/05/16 10:09:32;;;;;;;;;4.67;4.00;;;;;;;;5094814;27;45541;-76
2022/05/16 10:11:57;;;;;;;;;2.67;2.33;;;;;;;;5085310;27;45520;-77
2022/05/16 10:14:23;;;;;;;;;3.00;3.00;;;;;;;;5081662;27;45489;-77
2022/05/16 10:16:50;;;;;;;;;5.33;2.33;;;;;;;;5078556;27;47826;-76
2022/05/16 10:19:18;;;;;;;;;5.00;3.00;;;;;;;;5086793;27;45433;-79
2022/05/16 10:21:54;;;;;;;;;1.67;1.67;;;;;;;;5097238;27;45612;-78
2022/05/16 10:24:20;;;;;;;;;5.33;3.00;;;;;;;;5099050;27;45473;-78
2022/05/16 10:26:48;;;;;;;;;3.00;3.00;;;;;;;;5086929;27;46607;-78
2022/05/16 10:29:23;;;;;;;;;3.00;3.00;;;;;;;;5078162;27;45446;-79
2022/05/16 10:34:37;;;;;;;;;2.00;2.00;;;;;;;;5082960;27;45491;-77
2022/05/16 10:37:04;;;;;;;;;4.00;2.33;;;;;;;;5083265;27;46356;-76
2022/05/16 10:39:30;;;;;;;;;2.33;2.33;;;;;;;;5082974;27;45441;-78
2022/05/16 10:42:14;;;;;;;;;3.67;2.00;;;;;;;;5085188;27;45421;-77
2022/05/16 10:44:42;;;;;;;;;2.00;2.00;;;;;;;;5098197;27;45639;-77
2022/05/16 10:47:15;;;;;;;;;4.00;2.00;;;;;;;;5097835;27;45425;-77
2022/05/16 10:49:49;;;;;;;;;2.00;2.00;;;;;;;;5098231;27;45374;-77
2022/05/16 10:52:24;;;;;;;;;3.33;3.33;;;;;;;;5098075;27;45806;-77
2022/05/16 10:54:50;;;;;;;;;3.33;3.33;;;;;;;;5081865;27;45556;-77
2022/05/16 10:57:42;;;;;;;;;2.33;2.33;;;;;;;;5084045;27;45498;-77
2022/05/16 11:00:10;;;;;;;;;2.67;2.67;;;;;;;;5057564;28;45428;-77
2022/05/16 11:02:54;;;;;;;;;4.00;2.67;;;;;;;;5062570;28;45441;-77
2022/05/16 11:05:22;;;;;;;;;2.67;2.67;;;;;;;;5077585;27;45437;-77
2022/05/16 11:07:53;;;;;;;;;3.00;3.00;;;;;;;;5077270;27;45518;-76
2022/05/16 11:10:37;;;;;;;;;3.00;3.00;;;;;;;;5077221;28;45428;-77
2022/05/16 11:13:20;;;;;;;;;6.33;5.00;;;;;;;;5077192;28;45244;-77
2022/05/16 11:15:51;;;;;;;;;5.00;4.33;;;;;;;;5088665;27;45275;-76
2022/05/16 11:18:16;;;;;;;;;4.00;4.00;;;;;;;;5077853;27;46830;-77
2022/05/16 11:20:47;;;;;;;;;6.33;4.00;;;;;;;;5076880;27;45371;-77
2022/05/16 11:23:35;;;;;;;;;7.00;3.00;;;;;;;;5077158;27;45466;-77
2022/05/16 11:26:05;;;;;;;;;4.67;4.67;;;;;;;;5075678;28;45609;-78
2022/05/16 11:31:37;;;;;;;;;5.00;3.00;;;;;;;;5076095;27;45454;-78
2022/05/16 11:34:06;;;;;;;;;2.00;2.00;;;;;;;;5056947;28;45375;-78
2022/05/16 11:36:49;;;;;;;;;5.33;2.00;;;;;;;;5059616;27;45482;-77
2022/05/16 11:39:19;;;;;;;;;2.33;2.33;;;;;;;;5097215;27;46166;-78
2022/05/16 11:42:03;;;;;;;;;2.00;2.00;;;;;;;;5097519;27;45410;-77
2022/05/16 11:44:51;;;;;;;;;2.67;2.67;;;;;;;;5094934;27;45487;-76
2022/05/16 11:47:22;;;;;;;;;2.67;2.67;;;;;;;;5035304;28;45525;-75
2022/05/16 11:49:51;;;;;;;;;3.00;3.00;;;;;;;;5033932;28;46348;-77
2022/05/16 11:52:52;;;;;;;;;4.67;3.00;;;;;;;;5034128;28;45443;-77
2022/05/16 12:01:00;;;;;;;;;6.00;3.00;;;;;;;;4994207;28;45776;-76
2022/05/16 12:03:35;;;;;;;;;4.00;3.00;;;;;;;;4994064;28;45418;-76
2022/05/16 12:06:15;;;;;;;;;5.33;3.00;;;;;;;;4994343;28;45390;-76
2022/05/16 12:08:42;;;;;;;;;2.33;2.33;;;;;;;;4994362;28;45719;-79
2022/05/16 12:11:10;;;;;;;;;6.00;2.67;;;;;;;;4989814;28;47350;-77
2022/05/16 12:13:38;;;;;;;;;2.00;2.00;;;;;;;;4974271;28;45438;-77
2022/05/16 12:16:13;;;;;;;;;1.00;1.00;;;;;;;;4974552;28;45402;-75
2022/05/16 12:18:40;;;;;;;;;5.33;1.67;;;;;;;;4974644;28;45614;-77
2022/05/16 12:21:12;;;;;;;;;3.00;3.00;;;;;;;;4989064;28;46606;-78
2022/05/16 12:23:48;;;;;;;;;3.33;3.00;;;;;;;;5002328;28;45849;-77
2022/05/16 12:26:26;;;;;;;;;2.00;2.00;;;;;;;;5034122;28;45716;-77
2022/05/16 12:29:14;;;;;;;;;3.33;2.00;;;;;;;;5040760;28;45417;-77
2022/05/16 12:31:45;;;;;;;;;2.00;2.00;;;;;;;;5042687;28;46581;-77
2022/05/16 12:34:14;;;;;;;;;1.67;1.67;;;;;;;;5053670;28;45474;-77
2022/05/16 12:36:40;;;;;;;;;3.67;3.67;;;;;;;;5053833;28;45506;-78
2022/05/16 12:39:13;;;;;;;;;1.67;1.67;;;;;;;;5053932;28;45278;-77
2022/05/16 12:41:44;;;;;;;;;4.00;2.00;;;;;;;;5054422;28;47436;-78
2022/05/16 12:44:34;;;;;;;;;0.33;0.33;;;;;;;;5056823;28;45480;-77
2022/05/16 12:47:10;;;;;;;;;1.67;1.67;;;;;;;;5037631;28;45468;-77
2022/05/16 12:49:49;;;;;;;;;1.00;1.00;;;;;;;;5055117;28;45318;-79
2022/05/16 12:52:33;;;;;;;;;2.67;1.00;;;;;;;;5038656;28;46631;-78
2022/05/16 12:54:58;;;;;;;;;1.00;1.00;;;;;;;;5036549;28;45451;-77
2022/05/16 12:57:40;;;;;;;;;3.00;2.00;;;;;;;;5042273;28;45511;-77
2022/05/16 13:00:11;;;;;;;;;2.33;2.00;;;;;;;;5047288;28;45397;-77
2022/05/16 13:02:37;;;;;;;;;2.00;2.00;;;;;;;;5046445;28;46863;-76
2022/05/16 13:05:05;;;;;;;;;2.33;2.00;;;;;;;;5038732;28;45869;-77
2022/05/16 13:07:33;;;;;;;;;1.00;1.00;;;;;;;;5037174;28;45481;-77
2022/05/16 13:10:17;;;;;;;;;6.00;4.00;;;;;;;;5080489;27;45316;-78
2022/05/16 13:12:58;;;;;;;;;2.00;2.00;;;;;;;;5078677;28;46319;-79
2022/05/16 13:15:28;;;;;;;;;14.33;14.33;;;;;;;;5079024;27;45521;-78
2022/05/16 13:17:57;;;;;;;;;5.67;1.00;;;;;;;;5079182;27;45411;-77
2022/05/16 13:20:26;;;;;;;;;2.00;2.00;;;;;;;;5079026;27;45372;-78
2022/05/16 13:22:53;;;;;;;;;4.00;1.00;;;;;;;;5078613;27;45353;-76
2022/05/16 13:25:21;;;;;;;;;1.00;1.00;;;;;;;;5078924;27;45447;-77
2022/05/16 13:30:39;;;;;;;;;3.00;3.00;;;;;;;;5085253;27;45541;-78
2022/05/16 13:33:04;;;;;;;;;2.00;2.00;;;;;;;;5078909;28;45458;-77
2022/05/16 13:35:29;;;;;;;;;3.67;3.00;;;;;;;;5079040;27;45265;-79
2022/05/16 13:37:56;;;;;;;;;3.00;1.00;;;;;;;;5091902;27;45532;-78
2022/05/16 13:40:24;;;;;;;;;1.00;1.00;;;;;;;;5099404;27;45455;-78
2022/05/16 13:42:51;;;;;;;;;3.67;3.00;;;;;;;;5082942;27;46760;-77
2022/05/16 13:45:20;;;;;;;;;1.00;1.00;;;;;;;;5081473;27;45415;-78
2022/05/16 13:47:46;;;;;;;;;2.00;2.00;;;;;;;;5079057;27;45423;-78
2022/05/16 13:50:20;;;;;;;;;2.67;2.00;;;;;;;;5082485;27;45409;-76
2022/05/16 13:52:47;;;;;;;;;1.33;1.00;;;;;;;;5079605;27;46545;-78
2022/05/16 13:55:14;;;;;;;;;3.33;3.33;;;;;;;;5078484;27;45410;-77
2022/05/16 13:57:40;;;;;;;;;6.67;3.67;;;;;;;;5078840;27;45379;-77
2022/05/16 14:00:08;;;;;;;;;1.00;1.00;;;;;;;;5079303;27;45427;-78
2022/05/16 14:02:34;;;;;;;;;1.00;1.00;;;;;;;;5078711;27;47432;-77
2022/05/16 14:05:05;;;;;;;;;2.33;1.00;;;;;;;;5078758;27;45278;-77
2022/05/16 14:07:34;;;;;;;;;1.00;1.00;;;;;;;;5078989;27;45260;-77
2022/05/16 14:10:00;;;;;;;;;1.00;1.00;;;;;;;;5078917;27;45216;-76
2022/05/16 14:12:32;;;;;;;;;1.00;1.00;;;;;;;;5078547;27;45656;-77
2022/05/16 14:14:58;;;;;;;;;0.00;0.00;;;;;;;;5078732;27;45481;-77
2022/05/16 14:17:30;;;;;;;;;0.33;0.33;;;;;;;;5090255;27;45485;-78
2022/05/16 14:19:56;;;;;;;;;1.00;1.00;;;;;;;;5078434;27;45422;-78
2022/05/16 14:22:38;;;;;;;;;2.67;1.00;;;;;;;;5078026;27;46286;-78
2022/05/16 14:25:05;;;;;;;;;1.00;1.00;;;;;;;;5077976;27;45375;-78
2022/05/16 14:27:49;;;;;;;;;2.00;1.00;;;;;;;;5077925;27;45394;-78
2022/05/16 14:30:19;;;;;;;;;1.00;1.00;;;;;;;;5078084;28;45537;-78
2022/05/16 14:32:46;;;;;;;;;1.00;1.00;;;;;;;;5077887;27;45655;-78
2022/05/16 14:35:17;;;;;;;;;2.00;1.00;;;;;;;;5077710;27;45331;-79
2022/05/16 14:37:42;;;;;;;;;1.00;1.00;;;;;;;;5089625;27;45335;-78
2022/05/16 14:40:14;;;;;;;;;1.00;1.00;;;;;;;;5098131;27;45408;-79
2022/05/16 14:42:40;;;;;;;;;2.00;1.67;;;;;;;;5097954;27;45425;-79
2022/05/16 14:45:15;;;;;;;;;1.00;1.00;;;;;;;;5096097;27;45494;-79
2022/05/16 14:47:48;;;;;;;;;2.00;2.00;;;;;;;;5096526;27;45446;-78
2022/05/16 14:50:22;;;;;;;;;1.67;1.67;;;;;;;;5098211;27;45399;-77
2022/05/16 14:53:14;;;;;;;;;0.67;0.00;;;;;;;;5097954;27;45437;-78
2022/05/16 14:55:41;;;;;;;;;0.67;0.00;;;;;;;;5092945;27;45409;-76
2022/05/16 14:58:07;;;;;;;;;0.67;0.67;;;;;;;;5078601;27;45371;-77
2022/05/16 15:06:01;;;;;;;;;2.00;0.67;;;;;;;;5083263;27;45367;-76
2022/05/16 15:08:28;;;;;;;;;4.33;3.00;;;;;;;;5077899;27;45474;-77
2022/05/16 15:10:54;;;;;;;;;4.00;4.00;;;;;;;;5086672;27;45465;-78
2022/05/16 15:13:19;;;;;;;;;3.33;2.00;;;;;;;;5088999;27;48049;-78
2022/05/16 15:15:45;;;;;;;;;6.67;3.33;;;;;;;;5090412;27;45376;-81
2022/05/16 15:18:10;;;;;;;;;14.33;13.33;;;;;;;;5093799;27;45161;-78
2022/05/16 15:20:38;;;;;;;;;6.33;4.33;;;;;;;;5088493;27;45326;-81
2022/05/16 15:23:04;;;;;;;;;3.67;3.67;;;;;;;;5076920;27;46546;-78
2022/05/16 15:25:29;;;;;;;;;2.00;2.00;;;;;;;;5095558;27;45675;-78
2022/05/16 15:27:55;;;;;;;;;3.67;2.00;;;;;;;;5092003;27;45327;-78
2022/05/16 15:30:20;;;;;;;;;5.67;5.00;;;;;;;;5086586;27;45409;-77
2022/05/16 15:32:45;;;;;;;;;6.67;6.00;;;;;;;;5080629;27;45407;-75